TimeCST,TemperatureF,Dew PointF,Humidity,Sea Level PressureIn,VisibilityMPH,Wind Direction,Wind SpeedMPH,Gust SpeedMPH,PrecipitationIn,Events,Conditions,WindDirDegrees,DateUTC
12:26 AM,46.4,46.4,100,29.83,5.0,NNE,3.5,-,N/A,,Overcast,20,2012-12-09 06:26:00
12:53 AM,46.9,45.0,93,29.82,5.0,Calm,Calm,-,N/A,,Overcast,0,2012-12-09 06:53:00
1:53 AM,48.0,46.0,93,29.81,5.0,North,4.6,-,N/A,,Overcast,360,2012-12-09 07:53:00
2:53 AM,46.9,46.0,97,29.80,4.0,Variable,3.5,-,N/A,,Overcast,0,2012-12-09 08:53:00
3:15 AM,46.4,46.4,100,29.81,4.0,North,3.5,-,N/A,,Overcast,350,2012-12-09 09:15:00
3:24 AM,46.4,46.4,100,29.81,4.0,Calm,Calm,-,N/A,,Overcast,0,2012-12-09 09:24:00
3:53 AM,46.9,46.0,97,29.80,4.0,Calm,Calm,-,N/A,,Overcast,0,2012-12-09 09:53:00
4:53 AM,46.9,46.0,97,29.80,4.0,North,3.5,-,N/A,,Overcast,350,2012-12-09 10:53:00
5:53 AM,46.9,46.0,97,29.81,5.0,North,4.6,-,N/A,,Overcast,350,2012-12-09 11:53:00
6:09 AM,46.4,44.6,93,29.83,5.0,Calm,Calm,-,N/A,,Overcast,0,2012-12-09 12:09:00
6:53 AM,46.9,45.0,93,29.86,6.0,Calm,Calm,-,N/A,,Overcast,0,2012-12-09 12:53:00
7:36 AM,46.4,44.6,93,29.87,6.0,Variable,5.8,-,N/A,,Overcast,0,2012-12-09 13:36:00
7:42 AM,46.4,44.6,93,29.88,6.0,North,9.2,-,N/A,,Overcast,350,2012-12-09 13:42:00
7:53 AM,46.9,44.1,90,29.87,4.0,Variable,5.8,-,N/A,,Overcast,0,2012-12-09 13:53:00
8:24 AM,46.4,42.8,87,29.89,5.0,North,8.1,19.6,N/A,,Overcast,360,2012-12-09 14:24:00
8:48 AM,46.4,42.8,87,29.90,6.0,North,10.4,20.7,N/A,,Overcast,360,2012-12-09 14:48:00
8:53 AM,46.9,43.0,86,29.89,6.0,North,10.4,20.7,N/A,,Overcast,350,2012-12-09 14:53:00
9:38 AM,48.2,42.8,82,29.91,7.0,North,9.2,16.1,N/A,,Overcast,360,2012-12-09 15:38:00
9:53 AM,48.0,42.1,80,29.91,7.0,North,11.5,-,N/A,,Overcast,10,2012-12-09 15:53:00
10:18 AM,48.2,41.0,76,29.93,8.0,North,15.0,23.0,N/A,,Overcast,10,2012-12-09 16:18:00
10:53 AM,48.9,39.9,71,29.94,9.0,North,15.0,20.7,N/A,,Overcast,10,2012-12-09 16:53:00
11:13 AM,48.2,39.2,71,29.94,9.0,North,13.8,20.7,N/A,,Overcast,10,2012-12-09 17:13:00
11:53 AM,50.0,39.9,68,29.93,10.0,North,8.1,-,N/A,,Overcast,350,2012-12-09 17:53:00
12:53 PM,50.0,39.0,66,29.93,10.0,North,9.2,-,N/A,,Overcast,350,2012-12-09 18:53:00
1:28 PM,48.2,35.6,62,29.95,10.0,NNW,8.1,-,N/A,,Overcast,330,2012-12-09 19:28:00
1:53 PM,48.0,34.0,58,29.95,10.0,Variable,5.8,-,N/A,,Overcast,0,2012-12-09 19:53:00
2:01 PM,48.2,33.8,58,29.95,10.0,North,6.9,-,N/A,,Overcast,350,2012-12-09 20:01:00
2:53 PM,48.9,32.0,52,29.96,10.0,NNW,8.1,-,N/A,,Overcast,340,2012-12-09 20:53:00
3:53 PM,45.0,27.0,49,29.99,10.0,NNW,10.4,21.9,N/A,,Overcast,340,2012-12-09 21:53:00
4:53 PM,41.0,23.0,49,30.02,10.0,Variable,6.9,-,N/A,,Partly Cloudy,0,2012-12-09 22:53:00
5:53 PM,37.0,18.0,46,30.05,10.0,Variable,3.5,-,N/A,,Clear,0,2012-12-09 23:53:00
6:53 PM,32.0,16.0,52,30.09,10.0,Variable,6.9,-,N/A,,Partly Cloudy,0,2012-12-10 00:53:00
7:53 PM,30.0,15.1,54,30.10,10.0,NNW,8.1,-,N/A,,Clear,340,2012-12-10 01:53:00
8:53 PM,30.0,12.9,49,30.13,10.0,Variable,5.8,16.1,N/A,,Clear,0,2012-12-10 02:53:00
9:53 PM,28.9,12.0,49,30.14,10.0,Variable,6.9,-,N/A,,Clear,0,2012-12-10 03:53:00
10:53 PM,28.0,12.0,51,30.15,10.0,Variable,4.6,21.9,N/A,,Clear,0,2012-12-10 04:53:00
11:53 PM,28.0,12.9,53,30.16,10.0,Variable,6.9,-,N/A,,Clear,0,2012-12-10 05:53:00